• Join FlightAware (Why Join?)
  • Login
  • US Flag 
08:48AM EST


 

Airport Tracker/Info


-or-


 

Live Flight TrackerFlight Track Log ✈ VH-JXC ✈ 29-Aug-2013 ✈ YPJT / JAD - YWRC

Flight Track Log - Related Links

Times and Time Zones

All times are in EDT time to prevent confusion due to time zone crossing. See the VH-JXC flight status page for this flight to view local times or setup timezone preferences in your user account.

Time Position Orientation Groundspeed Altitude Reporting Facility
EDT Latitude Longitude Course Direction KTS MPH feet Rate Location/Type
01:37AM -32.0512 115.7756 329° Northwest 73 84 1,400  Level Aus ATC (RADAR)
01:38AM -32.0322 115.7622 329° Northwest 89 102 1,500 60 Climbing Aus ATC (RADAR)
01:39AM -32.0110 115.7630 North 102 117 1,600  Climbing Aus ATC (RADAR)
01:39AM -31.9916 115.7637 North 120 138 1,500 -180 Descending Aus ATC (RADAR)
01:40AM -31.9704 115.7642 North 130 150 1,400 60 Descending Aus ATC (RADAR)
01:40AM -31.9508 115.7647 North 122 140 1,600  Climbing Aus ATC (RADAR)
01:42AM -31.9071 115.7626 358° North 128 147 1,500 -60 Descending Aus ATC (RADAR)
01:42AM -31.8902 115.7544 338° Northwest 122 140 1,500  Level Aus ATC (RADAR)
01:43AM -31.9285 115.7494 186° South 156 180 1,500  Level Aus ATC (RADAR)
01:44AM -31.9580 115.7491 180° South 159 183 1,500 60 Level Aus ATC (RADAR)
01:44AM -31.9831 115.7491 180° South 156 180 1,600  Climbing Aus ATC (RADAR)
01:45AM -32.0161 115.7371 197° South 135 155 1,500 -120 Descending Aus ATC (RADAR)
01:49AM -32.1479 115.7412 180° South 1,500  Level Aus ATC (Calculated)
01:51AM -32.1696 115.7412 180° South  Level FlightAware Approximate
01:52AM -32.1848 115.7412 180° South  Level FlightAware Approximate
01:53AM -32.2000 115.7413 180° South  Level FlightAware Approximate
01:53AM -32.1428 115.8801 218° Southwest 3,000  Level Aus ATC (Calculated)
01:55AM -32.1629 115.8614 218° Southwest  Level FlightAware Approximate
01:56AM -32.1748 115.8504 218° Southwest  Level FlightAware Approximate
01:57AM -32.1867 115.8393 218° Southwest  Level FlightAware Approximate
01:57AM -32.1349 116.0884 242° Southwest 3,000  Level Aus ATC (Calculated)
01:59AM -32.1452 116.0658 242° Southwest  Level FlightAware Approximate
01:59AM -32.1308 116.1925 247° West 3,000  Level Aus ATC (Calculated)
02:01AM -32.1393 116.1689 247° West  Level FlightAware Approximate
02:02AM -32.1453 116.1524 247° West  Level FlightAware Approximate
02:03AM -32.1512 116.1359 247° West  Level FlightAware Approximate
02:04AM -32.1571 116.1194 247° West  Level FlightAware Approximate
02:04AM -32.1369 116.3780 264° West  Level Aus ATC (Calculated)
02:05AM -32.1630 116.1029 247° West  Level FlightAware Approximate
02:05AM -32.1369 116.3780 254° West  Level Aus ATC (Calculated)
02:06AM -32.1416 116.3588 254° West  Level FlightAware Approximate
02:07AM -32.1429 116.3533 254° West  Level FlightAware Approximate
02:08AM -32.1472 116.3361 254° West  Level FlightAware Approximate
02:08AM -32.1571 116.5408 273° West  Level Aus ATC (Calculated)
02:09AM -32.1493 116.3539 71° East  Level Estimated
02:10AM -32.1546 116.5210 278° West  Level FlightAware Approximate
02:10AM -32.1671 116.6222 278° West  Level Aus ATC (Calculated)
02:11AM -32.1524 116.5032 278° West  Level FlightAware Approximate
02:12AM -32.1646 116.6021 278° West  Level FlightAware Approximate
02:13AM -32.1624 116.5843 278° West  Level FlightAware Approximate
02:14AM -32.1603 116.5666 278° West  Level FlightAware Approximate
02:15AM -32.1581 116.5488 278° West  Level FlightAware Approximate
02:16AM -32.1559 116.5311 278° West  Level FlightAware Approximate
02:17AM -32.1537 116.5133 278° West  Level FlightAware Approximate
02:18AM -32.1515 116.4956 278° West  Level FlightAware Approximate
02:19AM -32.1493 116.4779 278° West  Level FlightAware Approximate
02:20AM -32.1471 116.4601 278° West  Level FlightAware Approximate
02:21AM -32.1449 116.4424 278° West  Level FlightAware Approximate
02:22AM -32.1427 116.4246 278° West  Level FlightAware Approximate
02:23AM -32.1405 116.4069 278° West  Level FlightAware Approximate
02:24AM -32.1382 116.3892 278° West  Level FlightAware Approximate
02:25AM -32.1360 116.3714 278° West  Level FlightAware Approximate
02:26AM -32.1338 116.3537 278° West  Level FlightAware Approximate
02:27AM -32.1316 116.3360 278° West  Level FlightAware Approximate
02:28AM -32.1294 116.3182 278° West  Level FlightAware Approximate
02:29AM -32.1272 116.3005 278° West  Level FlightAware Approximate
02:30AM -32.1249 116.2828 278° West  Level FlightAware Approximate
02:31AM -32.1272 116.3005 98° East  Level FlightAware Approximate
02:32AM -32.1249 116.2828 278° West  Level FlightAware Approximate
02:33AM -32.1272 116.3005 98° East  Level FlightAware Approximate
02:34AM -32.1249 116.2828 278° West  Level FlightAware Approximate
02:35AM -32.1272 116.3005 98° East  Level FlightAware Approximate
02:36AM -32.1249 116.2828 278° West  Level FlightAware Approximate
02:37AM -32.1272 116.3005 98° East  Level FlightAware Approximate
02:38AM -32.1249 116.2828 278° West  Level FlightAware Approximate
02:39AM -32.1272 116.3005 98° East  Level FlightAware Approximate
02:40AM -32.1249 116.2828 278° West  Level FlightAware Approximate
02:41AM -32.1272 116.3005 98° East  Level FlightAware Approximate
02:42AM -32.1267 116.2967 71° East  Level FlightAware Approximate
02:43AM -32.1289 116.3144 71° East  Level Estimated
02:44AM -32.1267 116.2967 71° East  Level FlightAware Approximate
02:45AM -32.1289 116.3144 71° East  Level Estimated
02:46AM -32.1267 116.2967 71° East  Level FlightAware Approximate
02:47AM -32.1289 116.3144 71° East  Level Estimated
02:48AM -32.1267 116.2967 71° East  Level FlightAware Approximate
02:49AM -32.1289 116.3144 71° East  Level Estimated
02:50AM -32.1267 116.2967 71° East  Level FlightAware Approximate
02:51AM -32.1289 116.3144 71° East  Level Estimated
02:52AM -32.1267 116.2967 71° East  Level FlightAware Approximate
02:53AM -32.1289 116.3144 71° East  Level Estimated
02:54AM -32.1267 116.2967 71° East  Level FlightAware Approximate
02:55AM -32.1289 116.3144 71° East  Level Estimated
02:56AM -32.1267 116.2967 71° East  Level FlightAware Approximate
02:57AM -32.1289 116.3144 71° East  Level Estimated
02:58AM -32.1267 116.2967 71° East  Level FlightAware Approximate
02:59AM -32.1289 116.3144 71° East  Level Estimated
03:00AM -32.1267 116.2967 71° East  Level FlightAware Approximate